sensor_id;sensor_type;location;lat;lon;timestamp;temperature;humidity
25438;DHT22;13364;49.084;9.978;2022-11-03T00:01:46;6.30;99.90
25438;DHT22;13364;49.084;9.978;2022-11-03T00:04:16;6.30;99.90
25438;DHT22;13364;49.084;9.978;2022-11-03T00:06:46;6.30;99.90
25438;DHT22;13364;49.084;9.978;2022-11-03T00:09:14;6.30;99.90
25438;DHT22;13364;49.084;9.978;2022-11-03T00:11:43;6.30;99.90
25438;DHT22;13364;49.084;9.978;2022-11-03T00:14:11;6.30;99.90
25438;DHT22;13364;49.084;9.978;2022-11-03T00:16:38;6.30;99.90
25438;DHT22;13364;49.084;9.978;2022-11-03T00:19:07;6.30;99.90
25438;DHT22;13364;49.084;9.978;2022-11-03T00:21:35;6.30;99.90
25438;DHT22;13364;49.084;9.978;2022-11-03T00:24:03;6.30;99.90
25438;DHT22;13364;49.084;9.978;2022-11-03T00:26:32;6.30;99.90
25438;DHT22;13364;49.084;9.978;2022-11-03T00:29:01;6.30;99.90
25438;DHT22;13364;49.084;9.978;2022-11-03T00:31:34;6.30;99.90
25438;DHT22;13364;49.084;9.978;2022-11-03T00:34:03;6.30;99.90
25438;DHT22;13364;49.084;9.978;2022-11-03T00:36:36;6.30;99.90
25438;DHT22;13364;49.084;9.978;2022-11-03T00:39:04;6.30;99.90
25438;DHT22;13364;49.084;9.978;2022-11-03T00:41:32;6.20;99.90
25438;DHT22;13364;49.084;9.978;2022-11-03T00:43:59;6.30;99.90
25438;DHT22;13364;49.084;9.978;2022-11-03T00:46:26;6.30;99.90
25438;DHT22;13364;49.084;9.978;2022-11-03T00:48:54;6.30;99.90
25438;DHT22;13364;49.084;9.978;2022-11-03T00:51:24;6.20;99.90
25438;DHT22;13364;49.084;9.978;2022-11-03T00:53:59;6.20;99.90
25438;DHT22;13364;49.084;9.978;2022-11-03T00:56:31;6.20;99.90
25438;DHT22;13364;49.084;9.978;2022-11-03T00:58:59;6.20;99.90
25438;DHT22;13364;49.084;9.978;2022-11-03T01:01:29;6.10;99.90
25438;DHT22;13364;49.084;9.978;2022-11-03T01:04:05;6.10;99.90
25438;DHT22;13364;49.084;9.978;2022-11-03T01:06:53;6.10;99.90
25438;DHT22;13364;49.084;9.978;2022-11-03T01:09:25;6.00;99.90
25438;DHT22;13364;49.084;9.978;2022-11-03T01:12:01;6.00;99.90
25438;DHT22;13364;49.084;9.978;2022-11-03T01:14:32;6.00;99.90
25438;DHT22;13364;49.084;9.978;2022-11-03T01:17:00;6.00;99.90
25438;DHT22;13364;49.084;9.978;2022-11-03T01:19:27;5.90;99.90
25438;DHT22;13364;49.084;9.978;2022-11-03T01:21:54;5.90;99.90
25438;DHT22;13364;49.084;9.978;2022-11-03T01:24:21;5.90;99.90
25438;DHT22;13364;49.084;9.978;2022-11-03T01:26:48;5.90;99.90
25438;DHT22;13364;49.084;9.978;2022-11-03T01:29:16;5.90;99.90
25438;DHT22;13364;49.084;9.978;2022-11-03T01:31:43;5.80;99.90
25438;DHT22;13364;49.084;9.978;2022-11-03T01:34:18;5.80;99.90
25438;DHT22;13364;49.084;9.978;2022-11-03T01:36:45;5.90;99.90
25438;DHT22;13364;49.084;9.978;2022-11-03T01:39:15;5.90;99.90
25438;DHT22;13364;49.084;9.978;2022-11-03T01:41:44;5.90;99.90
25438;DHT22;13364;49.084;9.978;2022-11-03T01:46:54;5.80;99.90
25438;DHT22;13364;49.084;9.978;2022-11-03T01:49:32;5.90;99.90
25438;DHT22;13364;49.084;9.978;2022-11-03T01:52:12;5.90;99.90
25438;DHT22;13364;49.084;9.978;2022-11-03T01:54:42;5.80;99.90
25438;DHT22;13364;49.084;9.978;2022-11-03T01:57:14;5.80;99.90
25438;DHT22;13364;49.084;9.978;2022-11-03T01:59:43;5.80;99.90
25438;DHT22;13364;49.084;9.978;2022-11-03T02:02:17;5.80;99.90
25438;DHT22;13364;49.084;9.978;2022-11-03T02:04:44;5.80;99.90
25438;DHT22;13364;49.084;9.978;2022-11-03T02:11:24;5.80;99.90
25438;DHT22;13364;49.084;9.978;2022-11-03T02:14:11;5.80;99.90
25438;DHT22;13364;49.084;9.978;2022-11-03T02:16:54;5.80;99.90
25438;DHT22;13364;49.084;9.978;2022-11-03T02:19:37;5.80;99.90
25438;DHT22;13364;49.084;9.978;2022-11-03T02:27:50;5.80;99.90
25438;DHT22;13364;49.084;9.978;2022-11-03T02:30:17;5.80;99.90
25438;DHT22;13364;49.084;9.978;2022-11-03T02:32:55;5.80;99.90
25438;DHT22;13364;49.084;9.978;2022-11-03T02:35:27;5.70;99.90
25438;DHT22;13364;49.084;9.978;2022-11-03T02:37:58;5.70;99.90
25438;DHT22;13364;49.084;9.978;2022-11-03T02:40:36;7.10;99.90
25438;DHT22;13364;49.084;9.978;2022-11-03T02:43:05;5.70;99.90
25438;DHT22;13364;49.084;9.978;2022-11-03T02:45:33;7.00;99.90
25438;DHT22;13364;49.084;9.978;2022-11-03T02:48:02;7.70;99.90
25438;DHT22;13364;49.084;9.978;2022-11-03T02:50:31;5.60;99.90
25438;DHT22;13364;49.084;9.978;2022-11-03T02:52:59;7.90;99.90
25438;DHT22;13364;49.084;9.978;2022-11-03T03:03:56;5.60;99.90
25438;DHT22;13364;49.084;9.978;2022-11-03T03:06:25;5.70;99.90
25438;DHT22;13364;49.084;9.978;2022-11-03T03:08:57;5.90;99.90
25438;DHT22;13364;49.084;9.978;2022-11-03T03:11:26;5.60;99.90
25438;DHT22;13364;49.084;9.978;2022-11-03T03:26:41;5.50;99.90
25438;DHT22;13364;49.084;9.978;2022-11-03T03:29:11;6.80;99.90
25438;DHT22;13364;49.084;9.978;2022-11-03T03:31:44;6.00;99.90
25438;DHT22;13364;49.084;9.978;2022-11-03T03:34:14;7.70;99.90
25438;DHT22;13364;49.084;9.978;2022-11-03T03:37:00;5.70;99.90
25438;DHT22;13364;49.084;9.978;2022-11-03T03:39:32;8.00;99.90
25438;DHT22;13364;49.084;9.978;2022-11-03T03:42:00;5.80;99.90
25438;DHT22;13364;49.084;9.978;2022-11-03T03:44:29;5.80;99.90
25438;DHT22;13364;49.084;9.978;2022-11-03T03:46:59;7.60;99.90
25438;DHT22;13364;49.084;9.978;2022-11-03T03:49:27;5.80;99.90
25438;DHT22;13364;49.084;9.978;2022-11-03T03:51:54;8.20;99.90
25438;DHT22;13364;49.084;9.978;2022-11-03T03:54:21;5.80;99.90
25438;DHT22;13364;49.084;9.978;2022-11-03T03:59:22;7.00;99.90
25438;DHT22;13364;49.084;9.978;2022-11-03T04:01:49;5.80;99.90
25438;DHT22;13364;49.084;9.978;2022-11-03T04:04:16;6.30;99.90
25438;DHT22;13364;49.084;9.978;2022-11-03T04:06:43;5.90;99.90
25438;DHT22;13364;49.084;9.978;2022-11-03T04:09:10;6.00;99.90
25438;DHT22;13364;49.084;9.978;2022-11-03T04:11:37;5.80;99.90
25438;DHT22;13364;49.084;9.978;2022-11-03T04:14:23;5.80;99.90
25438;DHT22;13364;49.084;9.978;2022-11-03T04:17:17;5.90;99.90
25438;DHT22;13364;49.084;9.978;2022-11-03T04:20:09;7.70;99.90
25438;DHT22;13364;49.084;9.978;2022-11-03T04:22:57;5.90;99.90
25438;DHT22;13364;49.084;9.978;2022-11-03T04:25:24;5.80;99.90
25438;DHT22;13364;49.084;9.978;2022-11-03T04:27:51;7.90;99.90
25438;DHT22;13364;49.084;9.978;2022-11-03T04:30:19;5.80;99.90
25438;DHT22;13364;49.084;9.978;2022-11-03T04:32:48;5.80;99.90
25438;DHT22;13364;49.084;9.978;2022-11-03T04:35:16;5.80;99.90
25438;DHT22;13364;49.084;9.978;2022-11-03T04:37:46;5.80;99.90
25438;DHT22;13364;49.084;9.978;2022-11-03T04:40:16;5.80;99.90
25438;DHT22;13364;49.084;9.978;2022-11-03T04:42:44;6.10;99.90
25438;DHT22;13364;49.084;9.978;2022-11-03T04:45:32;5.90;99.90
25438;DHT22;13364;49.084;9.978;2022-11-03T04:48:15;5.80;99.90
25438;DHT22;13364;49.084;9.978;2022-11-03T04:50:43;8.00;99.90
25438;DHT22;13364;49.084;9.978;2022-11-03T04:53:15;7.30;99.90
25438;DHT22;13364;49.084;9.978;2022-11-03T04:55:44;7.50;99.90
25438;DHT22;13364;49.084;9.978;2022-11-03T04:58:23;5.80;99.90
25438;DHT22;13364;49.084;9.978;2022-11-03T05:00:53;5.80;99.90
25438;DHT22;13364;49.084;9.978;2022-11-03T05:03:24;7.50;99.90
25438;DHT22;13364;49.084;9.978;2022-11-03T05:05:52;5.90;99.90
25438;DHT22;13364;49.084;9.978;2022-11-03T05:08:20;5.90;99.90
25438;DHT22;13364;49.084;9.978;2022-11-03T05:10:48;8.10;99.90
25438;DHT22;13364;49.084;9.978;2022-11-03T05:13:26;6.00;99.90
25438;DHT22;13364;49.084;9.978;2022-11-03T05:16:01;6.00;99.90
25438;DHT22;13364;49.084;9.978;2022-11-03T05:18:31;6.00;99.90
25438;DHT22;13364;49.084;9.978;2022-11-03T05:21:09;7.10;99.90
25438;DHT22;13364;49.084;9.978;2022-11-03T05:23:49;6.00;99.90
25438;DHT22;13364;49.084;9.978;2022-11-03T05:26:20;5.90;99.90
25438;DHT22;13364;49.084;9.978;2022-11-03T05:28:54;5.90;99.90
25438;DHT22;13364;49.084;9.978;2022-11-03T05:31:29;5.90;99.90
25438;DHT22;13364;49.084;9.978;2022-11-03T05:33:58;6.00;99.90
25438;DHT22;13364;49.084;9.978;2022-11-03T05:36:28;5.80;99.90
25438;DHT22;13364;49.084;9.978;2022-11-03T05:39:00;5.80;99.90
25438;DHT22;13364;49.084;9.978;2022-11-03T05:41:31;8.00;99.90
25438;DHT22;13364;49.084;9.978;2022-11-03T05:44:02;7.30;99.90
25438;DHT22;13364;49.084;9.978;2022-11-03T05:46:33;5.80;99.90
25438;DHT22;13364;49.084;9.978;2022-11-03T05:49:01;5.80;99.90
25438;DHT22;13364;49.084;9.978;2022-11-03T05:51:47;5.90;99.90
25438;DHT22;13364;49.084;9.978;2022-11-03T05:54:23;7.00;99.90
25438;DHT22;13364;49.084;9.978;2022-11-03T05:56:51;7.00;99.90
25438;DHT22;13364;49.084;9.978;2022-11-03T05:59:24;5.90;99.90
25438;DHT22;13364;49.084;9.978;2022-11-03T06:01:52;7.20;99.90
25438;DHT22;13364;49.084;9.978;2022-11-03T06:04:35;6.10;99.90
25438;DHT22;13364;49.084;9.978;2022-11-03T06:07:22;6.50;99.90
25438;DHT22;13364;49.084;9.978;2022-11-03T06:09:51;5.90;99.90
25438;DHT22;13364;49.084;9.978;2022-11-03T06:12:20;7.80;99.90
25438;DHT22;13364;49.084;9.978;2022-11-03T06:14:48;7.50;99.90
25438;DHT22;13364;49.084;9.978;2022-11-03T06:17:20;6.00;99.90
25438;DHT22;13364;49.084;9.978;2022-11-03T06:19:49;6.00;99.90
25438;DHT22;13364;49.084;9.978;2022-11-03T06:22:30;6.00;99.90
25438;DHT22;13364;49.084;9.978;2022-11-03T06:27:51;6.00;99.90
25438;DHT22;13364;49.084;9.978;2022-11-03T06:30:30;6.00;99.90
25438;DHT22;13364;49.084;9.978;2022-11-03T06:33:06;8.10;99.90
25438;DHT22;13364;49.084;9.978;2022-11-03T06:35:36;6.00;99.90
25438;DHT22;13364;49.084;9.978;2022-11-03T06:38:11;7.80;99.90
25438;DHT22;13364;49.084;9.978;2022-11-03T06:40:39;6.10;99.90
25438;DHT22;13364;49.084;9.978;2022-11-03T06:43:17;6.10;99.90
25438;DHT22;13364;49.084;9.978;2022-11-03T06:46:18;8.30;99.90
25438;DHT22;13364;49.084;9.978;2022-11-03T06:48:46;6.10;99.90
25438;DHT22;13364;49.084;9.978;2022-11-03T06:51:35;6.20;99.90
25438;DHT22;13364;49.084;9.978;2022-11-03T06:54:04;7.60;99.90
25438;DHT22;13364;49.084;9.978;2022-11-03T06:56:34;6.20;99.90
25438;DHT22;13364;49.084;9.978;2022-11-03T06:59:02;7.80;99.90
25438;DHT22;13364;49.084;9.978;2022-11-03T07:01:32;6.70;99.90
25438;DHT22;13364;49.084;9.978;2022-11-03T07:04:24;7.80;99.90
25438;DHT22;13364;49.084;9.978;2022-11-03T07:06:59;7.30;99.90
25438;DHT22;13364;49.084;9.978;2022-11-03T07:09:26;8.00;99.90
25438;DHT22;13364;49.084;9.978;2022-11-03T07:11:56;6.50;99.90
25438;DHT22;13364;49.084;9.978;2022-11-03T07:14:27;6.50;99.90
25438;DHT22;13364;49.084;9.978;2022-11-03T07:17:03;6.60;99.90
25438;DHT22;13364;49.084;9.978;2022-11-03T07:19:35;6.60;99.90
25438;DHT22;13364;49.084;9.978;2022-11-03T07:22:24;7.80;99.90
25438;DHT22;13364;49.084;9.978;2022-11-03T07:24:55;7.70;99.90
25438;DHT22;13364;49.084;9.978;2022-11-03T07:27:25;6.90;99.90
25438;DHT22;13364;49.084;9.978;2022-11-03T07:29:57;7.00;99.90
25438;DHT22;13364;49.084;9.978;2022-11-03T07:32:31;7.80;99.90
25438;DHT22;13364;49.084;9.978;2022-11-03T07:35:14;7.20;99.90
25438;DHT22;13364;49.084;9.978;2022-11-03T07:37:49;7.30;99.90
25438;DHT22;13364;49.084;9.978;2022-11-03T07:40:21;8.10;99.90
25438;DHT22;13364;49.084;9.978;2022-11-03T07:42:50;7.60;99.90
25438;DHT22;13364;49.084;9.978;2022-11-03T07:45:39;7.70;99.90
25438;DHT22;13364;49.084;9.978;2022-11-03T07:51:00;8.00;99.90
25438;DHT22;13364;49.084;9.978;2022-11-03T07:53:41;8.10;99.90
25438;DHT22;13364;49.084;9.978;2022-11-03T07:56:26;8.30;99.90
25438;DHT22;13364;49.084;9.978;2022-11-03T07:58:58;8.40;99.90
25438;DHT22;13364;49.084;9.978;2022-11-03T08:01:30;8.50;99.90
25438;DHT22;13364;49.084;9.978;2022-11-03T08:04:03;8.60;99.90
25438;DHT22;13364;49.084;9.978;2022-11-03T08:06:32;8.70;99.90
25438;DHT22;13364;49.084;9.978;2022-11-03T08:08:59;8.90;99.90
25438;DHT22;13364;49.084;9.978;2022-11-03T08:11:26;9.00;99.90
25438;DHT22;13364;49.084;9.978;2022-11-03T08:13:56;9.10;99.90
25438;DHT22;13364;49.084;9.978;2022-11-03T08:16:23;9.20;99.90
25438;DHT22;13364;49.084;9.978;2022-11-03T08:18:50;9.30;99.90
25438;DHT22;13364;49.084;9.978;2022-11-03T08:21:17;9.40;99.90
25438;DHT22;13364;49.084;9.978;2022-11-03T08:23:44;9.40;99.90
25438;DHT22;13364;49.084;9.978;2022-11-03T08:26:14;9.60;99.90
25438;DHT22;13364;49.084;9.978;2022-11-03T08:28:41;9.70;99.90
25438;DHT22;13364;49.084;9.978;2022-11-03T08:31:08;9.80;99.90
25438;DHT22;13364;49.084;9.978;2022-11-03T08:33:39;9.90;99.90
25438;DHT22;13364;49.084;9.978;2022-11-03T08:36:06;9.90;99.90
25438;DHT22;13364;49.084;9.978;2022-11-03T08:38:34;9.90;99.90
25438;DHT22;13364;49.084;9.978;2022-11-03T08:41:01;10.00;99.90
25438;DHT22;13364;49.084;9.978;2022-11-03T08:43:29;10.00;99.90
25438;DHT22;13364;49.084;9.978;2022-11-03T08:46:01;10.10;99.90
25438;DHT22;13364;49.084;9.978;2022-11-03T08:48:41;10.20;99.90
25438;DHT22;13364;49.084;9.978;2022-11-03T08:51:08;10.20;99.90
25438;DHT22;13364;49.084;9.978;2022-11-03T08:53:39;10.30;99.90
25438;DHT22;13364;49.084;9.978;2022-11-03T08:56:09;10.40;99.90
25438;DHT22;13364;49.084;9.978;2022-11-03T08:58:41;10.50;99.90
25438;DHT22;13364;49.084;9.978;2022-11-03T09:01:08;10.60;99.90
25438;DHT22;13364;49.084;9.978;2022-11-03T09:03:35;10.70;99.90
25438;DHT22;13364;49.084;9.978;2022-11-03T09:06:02;10.70;99.90
25438;DHT22;13364;49.084;9.978;2022-11-03T09:08:30;10.90;99.90
25438;DHT22;13364;49.084;9.978;2022-11-03T09:11:17;11.00;99.90
25438;DHT22;13364;49.084;9.978;2022-11-03T09:13:44;11.10;99.90
25438;DHT22;13364;49.084;9.978;2022-11-03T09:16:11;11.20;99.90
25438;DHT22;13364;49.084;9.978;2022-11-03T09:18:38;11.30;99.90
25438;DHT22;13364;49.084;9.978;2022-11-03T09:21:05;11.30;99.90
25438;DHT22;13364;49.084;9.978;2022-11-03T09:23:32;11.30;99.90
25438;DHT22;13364;49.084;9.978;2022-11-03T09:25:59;11.40;99.90
25438;DHT22;13364;49.084;9.978;2022-11-03T09:28:26;11.50;99.90
25438;DHT22;13364;49.084;9.978;2022-11-03T09:30:53;11.50;99.90
25438;DHT22;13364;49.084;9.978;2022-11-03T09:33:20;11.60;99.90
25438;DHT22;13364;49.084;9.978;2022-11-03T09:35:47;11.60;99.90
25438;DHT22;13364;49.084;9.978;2022-11-03T09:38:14;11.70;99.90
25438;DHT22;13364;49.084;9.978;2022-11-03T09:40:42;11.70;99.90
25438;DHT22;13364;49.084;9.978;2022-11-03T09:43:10;11.70;99.90
25438;DHT22;13364;49.084;9.978;2022-11-03T09:45:37;11.70;99.90
25438;DHT22;13364;49.084;9.978;2022-11-03T09:48:11;11.80;99.90
25438;DHT22;13364;49.084;9.978;2022-11-03T09:50:38;11.80;99.90
25438;DHT22;13364;49.084;9.978;2022-11-03T09:53:08;11.90;99.90
25438;DHT22;13364;49.084;9.978;2022-11-03T09:55:36;12.00;99.90
25438;DHT22;13364;49.084;9.978;2022-11-03T09:58:11;12.10;99.90
25438;DHT22;13364;49.084;9.978;2022-11-03T10:00:40;12.20;99.90
25438;DHT22;13364;49.084;9.978;2022-11-03T10:03:11;12.30;99.90
25438;DHT22;13364;49.084;9.978;2022-11-03T10:05:40;12.50;99.90
25438;DHT22;13364;49.084;9.978;2022-11-03T10:08:34;12.50;99.90
25438;DHT22;13364;49.084;9.978;2022-11-03T10:11:00;12.60;99.90
25438;DHT22;13364;49.084;9.978;2022-11-03T10:15:55;12.60;99.90
25438;DHT22;13364;49.084;9.978;2022-11-03T10:18:23;12.60;99.90
25438;DHT22;13364;49.084;9.978;2022-11-03T10:20:50;12.60;99.90
25438;DHT22;13364;49.084;9.978;2022-11-03T10:23:17;12.60;99.90
25438;DHT22;13364;49.084;9.978;2022-11-03T10:25:45;12.60;99.90
25438;DHT22;13364;49.084;9.978;2022-11-03T10:31:04;12.60;99.90
25438;DHT22;13364;49.084;9.978;2022-11-03T10:33:40;12.70;99.90
25438;DHT22;13364;49.084;9.978;2022-11-03T10:38:43;12.80;99.90
25438;DHT22;13364;49.084;9.978;2022-11-03T10:41:17;12.80;99.90
25438;DHT22;13364;49.084;9.978;2022-11-03T10:46:38;12.90;99.90
25438;DHT22;13364;49.084;9.978;2022-11-03T10:49:20;12.90;99.90
25438;DHT22;13364;49.084;9.978;2022-11-03T10:51:52;12.90;99.90
25438;DHT22;13364;49.084;9.978;2022-11-03T10:54:22;12.90;99.90
25438;DHT22;13364;49.084;9.978;2022-11-03T10:56:50;12.90;99.90
25438;DHT22;13364;49.084;9.978;2022-11-03T10:59:20;13.00;99.90
25438;DHT22;13364;49.084;9.978;2022-11-03T11:01:48;13.00;99.90
25438;DHT22;13364;49.084;9.978;2022-11-03T11:04:16;13.00;99.90
25438;DHT22;13364;49.084;9.978;2022-11-03T11:06:44;13.00;99.90
25438;DHT22;13364;49.084;9.978;2022-11-03T11:09:23;13.00;99.90
25438;DHT22;13364;49.084;9.978;2022-11-03T11:14:36;13.10;99.90
25438;DHT22;13364;49.084;9.978;2022-11-03T11:17:10;13.10;99.90
25438;DHT22;13364;49.084;9.978;2022-11-03T11:22:44;13.20;99.90
25438;DHT22;13364;49.084;9.978;2022-11-03T11:25:11;13.30;99.90
25438;DHT22;13364;49.084;9.978;2022-11-03T11:33:12;13.50;99.90
25438;DHT22;13364;49.084;9.978;2022-11-03T11:41:11;13.80;99.90
25438;DHT22;13364;49.084;9.978;2022-11-03T11:43:38;13.90;99.90
25438;DHT22;13364;49.084;9.978;2022-11-03T11:46:41;14.00;99.90
25438;DHT22;13364;49.084;9.978;2022-11-03T11:51:36;14.10;99.90
25438;DHT22;13364;49.084;9.978;2022-11-03T11:54:05;14.10;99.90
25438;DHT22;13364;49.084;9.978;2022-11-03T11:57:00;14.10;99.90
25438;DHT22;13364;49.084;9.978;2022-11-03T11:59:27;14.20;99.90
25438;DHT22;13364;49.084;9.978;2022-11-03T12:01:55;14.10;99.90
25438;DHT22;13364;49.084;9.978;2022-11-03T12:04:27;14.10;99.90
25438;DHT22;13364;49.084;9.978;2022-11-03T12:06:57;14.10;99.90
25438;DHT22;13364;49.084;9.978;2022-11-03T12:09:26;14.10;99.90
25438;DHT22;13364;49.084;9.978;2022-11-03T12:11:58;14.10;99.90
25438;DHT22;13364;49.084;9.978;2022-11-03T12:14:39;14.10;99.90
25438;DHT22;13364;49.084;9.978;2022-11-03T12:25:01;14.10;99.90
25438;DHT22;13364;49.084;9.978;2022-11-03T12:29:58;14.00;99.90
25438;DHT22;13364;49.084;9.978;2022-11-03T12:32:26;13.90;99.90
25438;DHT22;13364;49.084;9.978;2022-11-03T12:35:05;13.90;99.90
25438;DHT22;13364;49.084;9.978;2022-11-03T12:37:34;13.90;99.90
25438;DHT22;13364;49.084;9.978;2022-11-03T12:40:01;13.90;99.90
25438;DHT22;13364;49.084;9.978;2022-11-03T12:42:28;13.80;99.90
25438;DHT22;13364;49.084;9.978;2022-11-03T12:44:55;13.80;99.90
25438;DHT22;13364;49.084;9.978;2022-11-03T12:47:22;13.70;99.90
25438;DHT22;13364;49.084;9.978;2022-11-03T12:49:50;13.70;99.90
25438;DHT22;13364;49.084;9.978;2022-11-03T12:52:17;13.70;99.90
25438;DHT22;13364;49.084;9.978;2022-11-03T12:54:44;13.60;99.90
25438;DHT22;13364;49.084;9.978;2022-11-03T12:57:11;13.60;99.90
25438;DHT22;13364;49.084;9.978;2022-11-03T12:59:38;13.60;99.90
25438;DHT22;13364;49.084;9.978;2022-11-03T13:02:05;13.60;99.90
25438;DHT22;13364;49.084;9.978;2022-11-03T13:04:32;13.50;99.90
25438;DHT22;13364;49.084;9.978;2022-11-03T13:06:59;13.50;99.90
25438;DHT22;13364;49.084;9.978;2022-11-03T13:09:26;13.50;99.90
25438;DHT22;13364;49.084;9.978;2022-11-03T13:11:53;13.50;99.90
25438;DHT22;13364;49.084;9.978;2022-11-03T13:14:39;13.50;99.90
25438;DHT22;13364;49.084;9.978;2022-11-03T13:17:11;13.50;99.90
25438;DHT22;13364;49.084;9.978;2022-11-03T13:19:39;13.40;99.90
25438;DHT22;13364;49.084;9.978;2022-11-03T13:22:06;13.40;99.90
25438;DHT22;13364;49.084;9.978;2022-11-03T13:24:33;13.30;99.90
25438;DHT22;13364;49.084;9.978;2022-11-03T13:27:00;13.30;99.90
25438;DHT22;13364;49.084;9.978;2022-11-03T13:29:27;13.30;99.90
25438;DHT22;13364;49.084;9.978;2022-11-03T13:32:01;13.20;99.90
25438;DHT22;13364;49.084;9.978;2022-11-03T13:34:30;13.10;99.90
25438;DHT22;13364;49.084;9.978;2022-11-03T13:36:57;13.10;99.90
25438;DHT22;13364;49.084;9.978;2022-11-03T13:39:24;13.00;99.90
25438;DHT22;13364;49.084;9.978;2022-11-03T13:41:51;13.00;99.90
25438;DHT22;13364;49.084;9.978;2022-11-03T13:44:19;12.90;99.90
25438;DHT22;13364;49.084;9.978;2022-11-03T13:46:46;12.80;99.90
25438;DHT22;13364;49.084;9.978;2022-11-03T13:49:13;12.80;99.90
25438;DHT22;13364;49.084;9.978;2022-11-03T13:52:01;12.70;99.90
25438;DHT22;13364;49.084;9.978;2022-11-03T13:54:28;12.60;99.90
25438;DHT22;13364;49.084;9.978;2022-11-03T13:57:15;12.60;99.90
25438;DHT22;13364;49.084;9.978;2022-11-03T14:00:04;12.60;99.90
25438;DHT22;13364;49.084;9.978;2022-11-03T14:02:38;12.50;99.90
25438;DHT22;13364;49.084;9.978;2022-11-03T14:05:25;12.50;99.90
25438;DHT22;13364;49.084;9.978;2022-11-03T14:07:52;12.50;99.90
25438;DHT22;13364;49.084;9.978;2022-11-03T14:10:19;12.40;99.90
25438;DHT22;13364;49.084;9.978;2022-11-03T14:12:46;12.40;99.90
25438;DHT22;13364;49.084;9.978;2022-11-03T14:15:13;12.30;99.90
25438;DHT22;13364;49.084;9.978;2022-11-03T14:17:40;12.20;99.90
25438;DHT22;13364;49.084;9.978;2022-11-03T14:20:09;12.20;99.90
25438;DHT22;13364;49.084;9.978;2022-11-03T14:22:37;12.20;99.90
25438;DHT22;13364;49.084;9.978;2022-11-03T14:25:05;12.10;99.90
25438;DHT22;13364;49.084;9.978;2022-11-03T14:27:33;12.10;99.90
25438;DHT22;13364;49.084;9.978;2022-11-03T14:30:01;12.10;99.90
25438;DHT22;13364;49.084;9.978;2022-11-03T14:32:28;12.00;99.90
25438;DHT22;13364;49.084;9.978;2022-11-03T14:34:55;12.00;99.90
25438;DHT22;13364;49.084;9.978;2022-11-03T14:37:22;12.00;99.90
25438;DHT22;13364;49.084;9.978;2022-11-03T14:39:51;11.90;99.90
25438;DHT22;13364;49.084;9.978;2022-11-03T14:42:18;11.90;99.90
25438;DHT22;13364;49.084;9.978;2022-11-03T14:44:46;11.80;99.90
25438;DHT22;13364;49.084;9.978;2022-11-03T14:47:16;11.80;99.90
25438;DHT22;13364;49.084;9.978;2022-11-03T14:49:43;11.70;99.90
25438;DHT22;13364;49.084;9.978;2022-11-03T14:52:11;11.70;99.90
25438;DHT22;13364;49.084;9.978;2022-11-03T14:54:38;11.60;99.90
25438;DHT22;13364;49.084;9.978;2022-11-03T15:00:29;11.40;99.90
25438;DHT22;13364;49.084;9.978;2022-11-03T15:02:56;11.40;99.90
25438;DHT22;13364;49.084;9.978;2022-11-03T15:05:23;11.30;99.90
25438;DHT22;13364;49.084;9.978;2022-11-03T15:08:16;11.30;99.90
25438;DHT22;13364;49.084;9.978;2022-11-03T15:10:44;11.30;99.90
25438;DHT22;13364;49.084;9.978;2022-11-03T15:13:11;11.20;99.90
25438;DHT22;13364;49.084;9.978;2022-11-03T15:15:39;11.20;99.90
25438;DHT22;13364;49.084;9.978;2022-11-03T15:18:08;11.20;99.90
25438;DHT22;13364;49.084;9.978;2022-11-03T15:20:35;11.10;99.90
25438;DHT22;13364;49.084;9.978;2022-11-03T15:23:04;11.00;99.90
25438;DHT22;13364;49.084;9.978;2022-11-03T15:25:51;11.00;99.90
25438;DHT22;13364;49.084;9.978;2022-11-03T15:28:18;10.90;99.90
25438;DHT22;13364;49.084;9.978;2022-11-03T15:30:47;10.90;99.90
25438;DHT22;13364;49.084;9.978;2022-11-03T15:33:16;10.90;99.90
25438;DHT22;13364;49.084;9.978;2022-11-03T15:35:44;10.90;99.90
25438;DHT22;13364;49.084;9.978;2022-11-03T15:38:11;10.80;99.90
25438;DHT22;13364;49.084;9.978;2022-11-03T15:40:39;10.80;99.90
25438;DHT22;13364;49.084;9.978;2022-11-03T15:43:06;10.70;99.90
25438;DHT22;13364;49.084;9.978;2022-11-03T15:49:04;10.70;99.90
25438;DHT22;13364;49.084;9.978;2022-11-03T15:51:31;10.60;99.90
25438;DHT22;13364;49.084;9.978;2022-11-03T15:53:58;10.60;99.90
25438;DHT22;13364;49.084;9.978;2022-11-03T15:56:26;10.60;99.90
25438;DHT22;13364;49.084;9.978;2022-11-03T15:58:53;10.60;99.90
25438;DHT22;13364;49.084;9.978;2022-11-03T16:01:20;10.50;99.90
25438;DHT22;13364;49.084;9.978;2022-11-03T16:04:10;10.50;99.90
25438;DHT22;13364;49.084;9.978;2022-11-03T16:06:38;10.40;99.90
25438;DHT22;13364;49.084;9.978;2022-11-03T16:09:25;10.40;99.90
25438;DHT22;13364;49.084;9.978;2022-11-03T16:11:53;10.40;99.90
25438;DHT22;13364;49.084;9.978;2022-11-03T16:14:20;10.30;99.90
25438;DHT22;13364;49.084;9.978;2022-11-03T16:16:47;10.30;99.90
25438;DHT22;13364;49.084;9.978;2022-11-03T16:19:14;10.30;99.90
25438;DHT22;13364;49.084;9.978;2022-11-03T16:21:41;10.30;99.90
25438;DHT22;13364;49.084;9.978;2022-11-03T16:24:08;10.20;99.90
25438;DHT22;13364;49.084;9.978;2022-11-03T16:26:35;10.20;99.90
25438;DHT22;13364;49.084;9.978;2022-11-03T16:29:02;10.20;99.90
25438;DHT22;13364;49.084;9.978;2022-11-03T16:31:29;10.20;99.90
25438;DHT22;13364;49.084;9.978;2022-11-03T16:33:57;10.20;99.90
25438;DHT22;13364;49.084;9.978;2022-11-03T16:36:24;10.10;99.90
25438;DHT22;13364;49.084;9.978;2022-11-03T16:38:51;10.10;99.90
25438;DHT22;13364;49.084;9.978;2022-11-03T16:41:19;10.10;99.90
25438;DHT22;13364;49.084;9.978;2022-11-03T16:43:46;10.10;99.90
25438;DHT22;13364;49.084;9.978;2022-11-03T16:46:15;10.00;99.90
25438;DHT22;13364;49.084;9.978;2022-11-03T16:48:42;10.00;99.90
25438;DHT22;13364;49.084;9.978;2022-11-03T16:51:09;10.00;99.90
25438;DHT22;13364;49.084;9.978;2022-11-03T16:53:36;9.90;99.90
25438;DHT22;13364;49.084;9.978;2022-11-03T16:56:03;9.90;99.90
25438;DHT22;13364;49.084;9.978;2022-11-03T16:58:30;9.80;99.90
25438;DHT22;13364;49.084;9.978;2022-11-03T17:00:57;9.70;99.90
25438;DHT22;13364;49.084;9.978;2022-11-03T17:03:24;9.70;99.90
25438;DHT22;13364;49.084;9.978;2022-11-03T17:05:51;9.70;99.90
25438;DHT22;13364;49.084;9.978;2022-11-03T17:08:18;9.70;99.90
25438;DHT22;13364;49.084;9.978;2022-11-03T17:11:05;9.60;99.90
25438;DHT22;13364;49.084;9.978;2022-11-03T17:13:32;9.60;99.90
25438;DHT22;13364;49.084;9.978;2022-11-03T17:15:59;9.60;99.90
25438;DHT22;13364;49.084;9.978;2022-11-03T17:18:26;9.60;99.90
25438;DHT22;13364;49.084;9.978;2022-11-03T17:20:54;9.50;99.90
25438;DHT22;13364;49.084;9.978;2022-11-03T17:23:21;9.50;99.90
25438;DHT22;13364;49.084;9.978;2022-11-03T17:25:48;9.50;99.90
25438;DHT22;13364;49.084;9.978;2022-11-03T17:28:15;9.40;99.90
25438;DHT22;13364;49.084;9.978;2022-11-03T17:30:44;9.50;99.90
25438;DHT22;13364;49.084;9.978;2022-11-03T17:33:14;9.50;99.90